Time;durP1;ratioP1;P1;durP2;ratioP2;P2;SDS_P1;SDS_P2;PMS_P1;PMS_P2;Temp;Humidity;BMP_temperature;BMP_pressure;BME280_temperature;BME280_humidity;BME280_pressure;Samples;Min_cycle;Max_cycle;Signal;HPM_P1;HPM_P2
2022/09/13 00:01:17;;;;;;;;;;;18.90;99.90;;;;;;4997957;28;19917;-78
2022/09/13 00:04:09;;;;;;;;;;;19.00;99.90;;;;;;4996240;28;19921;-79
2022/09/13 00:06:37;;;;;;;;;;;18.90;99.90;;;;;;4913816;29;20051;-78
2022/09/13 00:09:06;;;;;;;;;;;18.90;99.90;;;;;;4986273;28;19933;-78
2022/09/13 00:11:32;;;;;;;;;;;18.90;99.90;;;;;;4995083;28;19909;-78
2022/09/13 00:13:58;;;;;;;;;;;18.80;99.90;;;;;;4979990;28;19924;-79
2022/09/13 00:16:28;;;;;;;;;;;18.80;99.90;;;;;;4977201;28;19909;-78
2022/09/13 00:18:57;;;;;;;;;;;18.80;99.90;;;;;;4994591;28;19918;-78
2022/09/13 00:21:23;;;;;;;;;;;18.80;99.90;;;;;;4989562;28;19953;-79
2022/09/13 00:23:50;;;;;;;;;;;18.80;99.90;;;;;;4984242;28;19910;-78
2022/09/13 00:26:17;;;;;;;;;;;18.70;99.90;;;;;;5003097;28;19910;-80
2022/09/13 00:28:46;;;;;;;;;;;18.70;99.90;;;;;;5001089;28;19917;-79
2022/09/13 00:34:51;;;;;;;;;;;18.80;99.90;;;;;;4894526;29;19987;-78
2022/09/13 00:37:16;;;;;;;;;;;18.80;99.90;;;;;;4893671;29;19911;-78
2022/09/13 00:39:42;;;;;;;;;;;18.70;99.90;;;;;;4977979;28;19920;-79
2022/09/13 00:42:18;;;;;;;;;;;18.70;99.90;;;;;;4993096;28;20004;-80
2022/09/13 00:44:46;;;;;;;;;;;18.80;99.90;;;;;;4979460;28;19916;-78
2022/09/13 00:47:13;;;;;;;;;;;18.70;99.90;;;;;;4997188;28;20441;-80
2022/09/13 00:49:46;;;;;;;;;;;18.60;99.90;;;;;;4976446;28;19910;-77
2022/09/13 00:52:14;;;;;;;;;;;18.80;99.90;;;;;;4993202;28;20012;-78
2022/09/13 00:54:57;;;;;;;;;;;18.80;99.90;;;;;;4974926;28;19910;-78
2022/09/13 00:57:23;;;;;;;;;;;18.80;99.90;;;;;;4974195;28;19927;-78
2022/09/13 01:00:06;;;;;;;;;;;18.80;99.90;;;;;;4992388;28;19936;-78
2022/09/13 01:02:32;;;;;;;;;;;18.80;99.90;;;;;;4991820;28;19913;-78
2022/09/13 01:04:58;;;;;;;;;;;18.70;99.90;;;;;;4992185;28;19918;-78
2022/09/13 01:07:26;;;;;;;;;;;18.60;99.90;;;;;;4996849;28;19918;-78
2022/09/13 01:09:55;;;;;;;;;;;18.60;99.90;;;;;;4980302;28;19933;-78
2022/09/13 01:12:45;;;;;;;;;;;18.70;99.90;;;;;;5001884;28;19974;-78
2022/09/13 01:15:14;;;;;;;;;;;18.70;99.90;;;;;;5003495;28;19913;-77
2022/09/13 01:17:51;;;;;;;;;;;18.80;99.90;;;;;;5003709;28;19933;-80
2022/09/13 01:20:20;;;;;;;;;;;18.90;99.90;;;;;;5004253;28;19914;-77
2022/09/13 01:23:09;;;;;;;;;;;18.90;99.90;;;;;;5003665;28;19910;-77
2022/09/13 01:25:46;;;;;;;;;;;19.00;99.90;;;;;;5001882;28;19918;-78
2022/09/13 01:28:31;;;;;;;;;;;19.00;99.90;;;;;;5007874;28;19952;-77
2022/09/13 01:31:20;;;;;;;;;;;18.90;99.90;;;;;;4987939;28;20085;-78
2022/09/13 01:33:55;;;;;;;;;;;18.80;99.90;;;;;;4982719;28;19918;-78
2022/09/13 01:39:42;;;;;;;;;;;18.70;99.90;;;;;;5002492;28;19917;-78
2022/09/13 01:42:16;;;;;;;;;;;18.60;99.90;;;;;;5001601;28;19960;-78
2022/09/13 01:45:00;;;;;;;;;;;18.60;99.90;;;;;;5003041;28;19917;-78
2022/09/13 01:47:29;;;;;;;;;;;18.60;99.90;;;;;;4984580;28;19910;-77
2022/09/13 01:50:09;;;;;;;;;;;18.50;99.90;;;;;;4982856;28;19913;-78
2022/09/13 01:52:43;;;;;;;;;;;18.40;99.90;;;;;;5000556;28;19932;-79
2022/09/13 01:55:28;;;;;;;;;;;18.30;99.90;;;;;;5003068;28;19913;-78
2022/09/13 01:58:38;;;;;;;;;;;18.20;99.90;;;;;;5001805;28;19910;-78
2022/09/13 02:00:47;;;;;;;;;;;18.20;99.90;;;;;;4991140;28;20003;-80
2022/09/13 02:03:28;;;;;;;;;;;18.10;99.90;;;;;;4984008;28;19918;-80
2022/09/13 02:06:03;;;;;;;;;;;18.20;99.90;;;;;;5003014;28;20331;-78
2022/09/13 02:08:40;;;;;;;;;;;18.20;99.90;;;;;;5004087;28;19909;-80
2022/09/13 02:11:26;;;;;;;;;;;18.10;99.90;;;;;;4989662;28;19906;-78
2022/09/13 02:14:08;;;;;;;;;;;18.10;99.90;;;;;;5001648;28;19913;-80
2022/09/13 02:16:44;;;;;;;;;;;18.10;99.90;;;;;;4998944;28;19961;-78
2022/09/13 02:19:22;;;;;;;;;;;18.10;99.90;;;;;;5001398;28;19944;-78
2022/09/13 02:21:51;;;;;;;;;;;18.10;99.90;;;;;;4983766;28;19914;-77
2022/09/13 02:24:19;;;;;;;;;;;18.10;99.90;;;;;;5001139;28;19917;-79
2022/09/13 02:26:48;;;;;;;;;;;18.00;99.90;;;;;;5001450;28;19913;-77
2022/09/13 02:29:17;;;;;;;;;;;18.00;99.90;;;;;;5001443;28;19933;-78
2022/09/13 02:32:01;;;;;;;;;;;18.00;99.90;;;;;;4998202;28;20436;-78
2022/09/13 02:35:17;;;;;;;;;;;18.00;99.90;;;;;;4980860;28;19910;-77
2022/09/13 02:37:19;;;;;;;;;;;18.00;99.90;;;;;;4982742;28;19910;-80
2022/09/13 02:39:50;;;;;;;;;;;17.90;99.90;;;;;;4998950;28;19933;-77
2022/09/13 02:42:21;;;;;;;;;;;17.80;99.90;;;;;;4974992;28;19914;-77
2022/09/13 02:44:55;;;;;;;;;;;17.80;99.90;;;;;;4995056;28;19914;-77
2022/09/13 02:47:39;;;;;;;;;;;17.90;99.90;;;;;;4990592;28;19909;-78
2022/09/13 02:50:33;;;;;;;;;;;17.90;99.90;;;;;;4998711;28;19909;-77
2022/09/13 02:54:05;;;;;;;;;;;17.90;99.90;;;;;;5002830;28;19920;-78
2022/09/13 02:56:17;;;;;;;;;;;17.90;99.90;;;;;;4989749;28;19910;-78
2022/09/13 02:58:50;;;;;;;;;;;17.90;99.90;;;;;;4997488;28;19929;-78
2022/09/13 03:01:37;;;;;;;;;;;17.80;99.90;;;;;;4996845;28;19924;-79
2022/09/13 03:04:12;;;;;;;;;;;17.90;99.90;;;;;;4989878;28;19917;-77
2022/09/13 03:06:41;;;;;;;;;;;17.90;99.90;;;;;;4986192;28;19933;-78
2022/09/13 03:13:06;;;;;;;;;;;;;;;;;;;;;
2022/09/13 03:15:50;;;;;;;;;;;17.80;99.90;;;;;;4999657;28;20246;-80
2022/09/13 03:18:44;;;;;;;;;;;17.90;99.90;;;;;;4998416;28;19917;-78
2022/09/13 03:24:24;;;;;;;;;;;17.90;99.90;;;;;;4997870;28;19994;-78
2022/09/13 03:27:24;;;;;;;;;;;17.90;99.90;;;;;;4979569;28;19918;-80
2022/09/13 03:33:19;;;;;;;;;;;17.90;99.90;;;;;;4994531;28;20417;-77
2022/09/13 03:43:06;;;;;;;;;;;18.00;99.90;;;;;;4993728;28;19940;-77
2022/09/13 03:49:11;;;;;;;;;;;17.80;99.90;;;;;;4935797;29;19918;-77
2022/09/13 03:52:12;;;;;;;;;;;17.80;99.90;;;;;;4863727;29;19963;-77
2022/09/13 03:54:46;;;;;;;;;;;17.80;99.90;;;;;;4857156;29;19966;-78
2022/09/13 03:57:37;;;;;;;;;;;17.80;99.90;;;;;;4917364;29;19915;-77
2022/09/13 04:00:09;;;;;;;;;;;17.80;99.90;;;;;;4918350;29;19966;-78
2022/09/13 04:15:47;;;;;;;;;;;17.80;99.90;;;;;;4869286;29;19919;-79
2022/09/13 04:18:47;;;;;;;;;;;17.90;99.90;;;;;;4835494;29;19916;-80
2022/09/13 04:21:19;;;;;;;;;;;17.90;99.90;;;;;;4945472;28;19918;-78
2022/09/13 04:23:54;;;;;;;;;;;17.90;99.90;;;;;;4990814;28;19918;-78
2022/09/13 04:26:20;;;;;;;;;;;17.90;99.90;;;;;;4999911;28;20009;-77
2022/09/13 04:28:46;;;;;;;;;;;17.80;99.90;;;;;;4997603;28;20009;-77
2022/09/13 04:41:02;;;;;;;;;;;17.70;99.90;;;;;;4940704;28;19923;-76
2022/09/13 04:43:28;;;;;;;;;;;17.60;99.90;;;;;;4935773;29;20320;-77
2022/09/13 04:46:12;;;;;;;;;;;17.50;99.90;;;;;;4939415;29;19990;-77
2022/09/13 04:55:10;;;;;;;;;;;17.60;99.90;;;;;;4943564;29;19962;-78
2022/09/13 04:57:57;;;;;;;;;;;17.60;99.90;;;;;;4902796;29;19911;-78
2022/09/13 05:01:05;;;;;;;;;;;17.70;99.90;;;;;;4899369;29;19919;-78
2022/09/13 05:07:00;;;;;;;;;;;;;;;;;;;;;
2022/09/13 05:22:05;;;;;;;;;;;17.80;99.90;;;;;;4988028;28;20352;-77
2022/09/13 05:50:04;;;;;;;;;;;;;;;;;;;;;
2022/09/13 05:58:55;;;;;;;;;;;;;;;;;;;;;
2022/09/13 06:17:41;;;;;;;;;;;19.10;99.90;;;;;;4835738;29;20404;-79
2022/09/13 06:38:47;;;;;;;;;;;21.00;99.90;;;;;;4833721;29;20113;-77
2022/09/13 06:41:28;;;;;;;;;;;21.30;99.90;;;;;;4827251;29;19924;-77
2022/09/13 06:44:06;;;;;;;;;;;21.40;99.90;;;;;;4902105;28;19975;-77
2022/09/13 06:46:33;;;;;;;;;;;21.40;99.90;;;;;;4911612;29;20285;-77
2022/09/13 06:49:30;;;;;;;;;;;21.50;99.90;;;;;;4913407;28;19915;-77
2022/09/13 06:52:17;;;;;;;;;;;21.60;99.90;;;;;;4990738;28;19933;-78
2022/09/13 06:54:43;;;;;;;;;;;21.70;99.90;;;;;;4991161;28;19929;-78
2022/09/13 06:57:27;;;;;;;;;;;21.70;99.90;;;;;;4989881;28;19999;-78
2022/09/13 07:00:01;;;;;;;;;;;21.90;99.90;;;;;;4971572;28;20461;-78
2022/09/13 07:02:53;;;;;;;;;;;;;;;;;;;;;
2022/09/13 07:33:49;;;;;;;;;;;;;;;;;;;;;
2022/09/13 07:36:41;;;;;;;;;;;23.10;99.90;;;;;;4884768;29;19976;-78
2022/09/13 07:39:36;;;;;;;;;;;23.30;99.90;;;;;;4884982;29;19916;-80
2022/09/13 07:42:38;;;;;;;;;;;23.40;99.90;;;;;;4870811;29;19916;-80
2022/09/13 07:49:12;;;;;;;;;;;;;;;;;;;;;
2022/09/13 07:51:55;;;;;;;;;;;23.80;99.90;;;;;;4906843;29;20001;-79
2022/09/13 07:55:42;;;;;;;;;;;23.90;99.90;;;;;;4913770;29;20416;-80
2022/09/13 07:58:14;;;;;;;;;;;23.90;99.90;;;;;;4860053;29;19979;-80
2022/09/13 08:01:21;;;;;;;;;;;24.00;99.90;;;;;;4862664;29;19958;-80
2022/09/13 08:17:14;;;;;;;;;;;;;;;;;;;;;
2022/09/13 08:34:47;;;;;;;;;;;24.30;99.90;;;;;;4930536;29;20308;-81
2022/09/13 08:38:17;;;;;;;;;;;;;;;;;;;;;
2022/09/13 08:50:17;;;;;;;;;;;25.30;99.90;;;;;;4893423;29;19967;-81
2022/09/13 09:05:47;;;;;;;;;;;25.00;99.90;;;;;;4876718;29;19972;-82
2022/09/13 09:08:45;;;;;;;;;;;;;;;;;;;;;
2022/09/13 09:39:41;;;;;;;;;;;;;;;;;;;;;
2022/09/13 09:42:47;;;;;;;;;;;25.00;99.90;;;;;;4798034;30;19925;-82
2022/09/13 09:48:56;;;;;;;;;;;25.00;99.90;;;;;;4791844;30;19909;-82
2022/09/13 09:51:59;;;;;;;;;;;25.10;99.90;;;;;;4805803;29;19909;-82
2022/09/13 10:19:46;;;;;;;;;;;25.00;99.90;;;;;;4933441;29;19911;-82
2022/09/13 10:23:00;;;;;;;;;;;24.90;99.90;;;;;;4915944;29;19983;-82
2022/09/13 10:25:47;;;;;;;;;;;24.80;99.90;;;;;;4933690;29;19955;-83
2022/09/13 10:31:57;;;;;;;;;;;;;;;;;;;;;
2022/09/13 10:37:33;;;;;;;;;;;24.90;99.90;;;;;;4840969;29;19935;-75
2022/09/13 10:49:40;;;;;;;;;;;25.00;99.90;;;;;;4919123;28;20276;-75
2022/09/13 11:01:43;;;;;;;;;;;25.30;99.90;;;;;;4996388;28;20359;-75
2022/09/13 11:04:32;;;;;;;;;;;25.30;99.90;;;;;;4995526;28;19913;-75
2022/09/13 11:07:04;;;;;;;;;;;25.30;99.90;;;;;;4988556;28;19963;-75
2022/09/13 11:09:34;;;;;;;;;;;25.30;99.90;;;;;;4994966;28;20322;-75
2022/09/13 11:12:06;;;;;;;;;;;25.20;99.90;;;;;;4995337;28;19912;-75
2022/09/13 11:14:52;;;;;;;;;;;25.30;99.90;;;;;;4995137;28;19906;-75
2022/09/13 11:17:39;;;;;;;;;;;25.30;99.90;;;;;;4994680;28;19996;-75
2022/09/13 11:20:15;;;;;;;;;;;25.40;99.90;;;;;;4977545;28;19905;-75
2022/09/13 11:22:52;;;;;;;;;;;25.40;99.90;;;;;;4994830;28;20390;-75
2022/09/13 11:25:36;;;;;;;;;;;25.50;99.90;;;;;;4995124;28;19906;-75
2022/09/13 11:28:12;;;;;;;;;;;25.40;99.90;;;;;;4994973;28;20303;-75
2022/09/13 11:30:48;;;;;;;;;;;25.30;99.90;;;;;;4993616;28;19985;-75
2022/09/13 11:33:29;;;;;;;;;;;25.10;99.90;;;;;;4995221;28;19916;-75
2022/09/13 11:39:12;;;;;;;;;;;24.80;99.90;;;;;;4982775;28;20026;-75
2022/09/13 11:41:44;;;;;;;;;;;24.70;99.90;;;;;;4993762;28;19988;-77
2022/09/13 11:44:29;;;;;;;;;;;24.70;99.90;;;;;;4977426;28;19906;-75
2022/09/13 11:47:23;;;;;;;;;;;24.60;99.90;;;;;;4993878;28;19929;-75
2022/09/13 11:49:57;;;;;;;;;;;24.60;99.90;;;;;;4993306;28;19932;-74
2022/09/13 11:52:29;;;;;;;;;;;24.60;99.90;;;;;;5004628;28;20007;-74
2022/09/13 11:55:14;;;;;;;;;;;24.80;99.90;;;;;;5006115;28;19928;-74
2022/09/13 11:57:42;;;;;;;;;;;24.80;99.90;;;;;;4996327;28;20404;-76
2022/09/13 12:00:17;;;;;;;;;;;24.70;99.90;;;;;;4995988;28;19909;-75
2022/09/13 12:03:01;;;;;;;;;;;24.70;99.90;;;;;;5003239;28;19913;-74
2022/09/13 12:05:48;;;;;;;;;;;24.70;99.90;;;;;;4975159;28;20000;-75
2022/09/13 12:08:47;;;;;;;;;;;24.60;99.90;;;;;;4979291;28;19921;-75
2022/09/13 12:11:20;;;;;;;;;;;24.60;99.90;;;;;;4993875;28;19948;-74
2022/09/13 12:13:57;;;;;;;;;;;24.60;99.90;;;;;;4993288;28;19936;-74
2022/09/13 12:16:47;;;;;;;;;;;24.60;99.90;;;;;;4988080;28;19909;-74
2022/09/13 12:19:45;;;;;;;;;;;24.60;99.90;;;;;;4993632;28;19916;-75
2022/09/13 12:22:27;;;;;;;;;;;24.60;99.90;;;;;;4967092;28;19921;-74
2022/09/13 12:25:42;;;;;;;;;;;24.70;99.90;;;;;;4996562;28;19956;-75
2022/09/13 12:28:02;;;;;;;;;;;24.90;99.90;;;;;;4987510;28;20383;-75
2022/09/13 12:30:32;;;;;;;;;;;25.00;99.90;;;;;;4998908;28;20305;-75
2022/09/13 12:33:10;;;;;;;;;;;25.00;99.90;;;;;;4990772;28;19910;-73
2022/09/13 12:36:24;;;;;;;;;;;;;;;;;;;;;
2022/09/13 12:39:20;;;;;;;;;;;24.90;99.90;;;;;;4991229;28;19920;-74
2022/09/13 12:42:04;;;;;;;;;;;25.00;99.90;;;;;;4992564;28;19921;-75
2022/09/13 12:47:41;;;;;;;;;;;24.90;99.90;;;;;;4899157;29;20392;-74
2022/09/13 12:50:25;;;;;;;;;;;25.10;99.90;;;;;;4916868;29;19907;-74
2022/09/13 12:53:14;;;;;;;;;;;25.10;99.90;;;;;;4970400;28;19937;-77
2022/09/13 12:59:09;;;;;;;;;;;25.20;99.90;;;;;;4942069;29;19983;-78
2022/09/13 13:01:38;;;;;;;;;;;25.10;99.90;;;;;;4993990;28;19914;-77
2022/09/13 13:04:14;;;;;;;;;;;25.30;99.90;;;;;;4984258;28;19918;-77
2022/09/13 13:06:48;;;;;;;;;;;25.30;99.90;;;;;;4996548;28;19941;-77
2022/09/13 13:09:45;;;;;;;;;;;;;;;;;;;;;
2022/09/13 13:12:30;;;;;;;;;;;25.30;99.90;;;;;;5001006;28;19972;-77
2022/09/13 13:15:35;;;;;;;;;;;25.30;99.90;;;;;;5000756;28;19922;-77
2022/09/13 13:24:40;;;;;;;;;;;25.40;99.90;;;;;;4944331;29;20036;-77
2022/09/13 13:27:53;;;;;;;;;;;;;;;;;;;;;
2022/09/13 13:30:43;;;;;;;;;;;25.50;99.90;;;;;;4932454;29;20005;-77
2022/09/13 13:33:28;;;;;;;;;;;25.60;99.90;;;;;;4942739;29;19919;-77
2022/09/13 13:36:26;;;;;;;;;;;;;;;;;;;;;
2022/09/13 13:38:53;;;;;;;;;;;25.40;99.90;;;;;;5007732;28;19977;-77
2022/09/13 13:41:57;;;;;;;;;;;25.40;99.90;;;;;;5016849;28;19923;-78
2022/09/13 13:44:32;;;;;;;;;;;25.40;99.90;;;;;;4942504;28;20018;-82
2022/09/13 13:47:18;;;;;;;;;;;25.30;99.90;;;;;;4955876;29;19965;-80
2022/09/13 13:50:15;;;;;;;;;;;25.60;99.90;;;;;;4985428;28;19972;-79
2022/09/13 13:53:05;;;;;;;;;;;;;;;;;;;;;
2022/09/13 13:56:02;;;;;;;;;;;25.70;99.90;;;;;;5010675;28;19945;-80
2022/09/13 13:58:32;;;;;;;;;;;25.80;99.90;;;;;;4996970;28;19933;-78
2022/09/13 14:01:05;;;;;;;;;;;25.80;99.90;;;;;;5007113;28;19920;-76
2022/09/13 14:03:34;;;;;;;;;;;25.90;99.90;;;;;;4993124;28;20520;-76
2022/09/13 14:09:10;;;;;;;;;;;25.90;99.90;;;;;;5000192;28;19956;-77
2022/09/13 14:11:45;;;;;;;;;;;25.80;99.90;;;;;;4999282;28;19977;-77
2022/09/13 14:14:14;;;;;;;;;;;25.60;99.90;;;;;;4992738;28;19914;-76
2022/09/13 14:17:17;;;;;;;;;;;25.70;99.90;;;;;;4994261;28;19910;-76
2022/09/13 14:20:20;;;;;;;;;;;25.70;99.90;;;;;;5000231;28;19910;-76
2022/09/13 14:22:46;;;;;;;;;;;25.90;99.90;;;;;;4980100;28;19913;-76
2022/09/13 14:25:22;;;;;;;;;;;25.60;99.90;;;;;;4996045;28;19905;-76
2022/09/13 14:27:48;;;;;;;;;;;25.60;99.90;;;;;;4995970;28;19906;-76
2022/09/13 14:30:27;;;;;;;;;;;25.50;99.90;;;;;;4995982;28;19914;-76
2022/09/13 14:32:54;;;;;;;;;;;25.50;99.90;;;;;;4994955;28;19985;-76
2022/09/13 14:35:30;;;;;;;;;;;25.60;99.90;;;;;;4995773;28;19905;-77
2022/09/13 14:38:22;;;;;;;;;;;25.60;99.90;;;;;;4995681;28;19949;-76
2022/09/13 14:40:52;;;;;;;;;;;25.70;99.90;;;;;;4916416;29;19911;-77
2022/09/13 14:43:19;;;;;;;;;;;25.80;99.90;;;;;;4969998;28;19925;-76
2022/09/13 14:45:59;;;;;;;;;;;25.70;99.90;;;;;;4995939;28;19906;-77
2022/09/13 14:48:35;;;;;;;;;;;25.80;99.90;;;;;;4995264;28;19906;-76
2022/09/13 14:51:13;;;;;;;;;;;25.70;99.90;;;;;;4995305;28;19967;-76
2022/09/13 14:53:39;;;;;;;;;;;25.60;99.90;;;;;;4994002;28;20289;-76
2022/09/13 14:56:26;;;;;;;;;;;25.60;99.90;;;;;;4995203;28;19916;-76
2022/09/13 14:59:40;;;;;;;;;;;;;;;;;;;;;
2022/09/13 15:02:34;;;;;;;;;;;25.50;99.90;;;;;;4966119;28;19909;-76
2022/09/13 15:05:25;;;;;;;;;;;25.50;99.90;;;;;;4992161;28;20421;-76
2022/09/13 15:08:07;;;;;;;;;;;;;;;;;;;;;
2022/09/13 15:10:42;;;;;;;;;;;25.30;99.90;;;;;;4995076;28;19979;-76
2022/09/13 15:13:09;;;;;;;;;;;25.20;99.90;;;;;;4994400;28;19910;-76
2022/09/13 15:15:44;;;;;;;;;;;25.10;99.90;;;;;;4994160;28;20000;-76
2022/09/13 15:18:19;;;;;;;;;;;25.10;99.90;;;;;;4977945;28;19906;-76
2022/09/13 15:21:08;;;;;;;;;;;25.10;99.90;;;;;;4994987;28;19992;-76
2022/09/13 15:23:37;;;;;;;;;;;25.10;99.90;;;;;;4994037;28;19944;-76
2022/09/13 15:26:20;;;;;;;;;;;25.10;99.90;;;;;;4976442;28;19989;-76
2022/09/13 15:28:48;;;;;;;;;;;25.00;99.90;;;;;;4994915;28;19906;-76
2022/09/13 15:31:23;;;;;;;;;;;25.10;99.90;;;;;;4994555;28;19944;-76
2022/09/13 15:34:08;;;;;;;;;;;25.10;99.90;;;;;;4994308;28;19910;-76
2022/09/13 15:36:34;;;;;;;;;;;25.20;99.90;;;;;;4993607;28;19909;-76
2022/09/13 15:39:01;;;;;;;;;;;25.30;99.90;;;;;;4992895;28;20398;-76
2022/09/13 15:41:28;;;;;;;;;;;25.40;99.90;;;;;;4993125;28;19910;-76
2022/09/13 15:43:54;;;;;;;;;;;25.40;99.90;;;;;;4994150;28;19949;-76
2022/09/13 15:46:19;;;;;;;;;;;25.40;99.90;;;;;;4994403;28;19906;-76
2022/09/13 15:48:55;;;;;;;;;;;25.30;99.90;;;;;;4994637;28;19953;-76
2022/09/13 15:51:21;;;;;;;;;;;25.30;99.90;;;;;;4994392;28;19906;-76
2022/09/13 15:54:13;;;;;;;;;;;25.30;99.90;;;;;;4990951;28;19917;-76
2022/09/13 15:56:54;;;;;;;;;;;;;;;;;;;;;
2022/09/13 15:59:20;;;;;;;;;;;25.00;99.90;;;;;;4991737;28;19910;-76
2022/09/13 16:01:54;;;;;;;;;;;25.00;99.90;;;;;;4993549;28;20359;-76
2022/09/13 16:04:20;;;;;;;;;;;24.90;99.90;;;;;;4994968;28;19909;-76
2022/09/13 16:06:46;;;;;;;;;;;24.90;99.90;;;;;;4991866;28;19910;-76
2022/09/13 16:09:22;;;;;;;;;;;24.80;99.90;;;;;;4988494;28;19916;-76
2022/09/13 16:11:49;;;;;;;;;;;24.60;99.90;;;;;;4993059;28;19909;-76
2022/09/13 16:14:28;;;;;;;;;;;24.60;99.90;;;;;;4995256;28;19910;-76
2022/09/13 16:16:59;;;;;;;;;;;24.50;99.90;;;;;;4999618;28;19931;-73
2022/09/13 16:19:25;;;;;;;;;;;24.30;99.90;;;;;;4995593;28;19916;-73
2022/09/13 16:21:51;;;;;;;;;;;24.20;99.90;;;;;;4995566;28;19926;-76
2022/09/13 16:24:18;;;;;;;;;;;24.30;99.90;;;;;;5006124;28;20085;-73
2022/09/13 16:26:44;;;;;;;;;;;24.20;99.90;;;;;;4992519;28;19960;-73
2022/09/13 16:29:10;;;;;;;;;;;24.10;99.90;;;;;;4996242;28;20008;-74
2022/09/13 16:31:35;;;;;;;;;;;24.00;99.90;;;;;;4985129;28;19909;-74
2022/09/13 16:34:01;;;;;;;;;;;24.00;99.90;;;;;;4995912;28;19906;-74
2022/09/13 16:36:33;;;;;;;;;;;24.10;99.90;;;;;;4996572;28;19906;-73
2022/09/13 16:39:01;;;;;;;;;;;24.10;99.90;;;;;;4996339;28;19910;-74
2022/09/13 16:41:45;;;;;;;;;;;24.00;99.90;;;;;;4996878;28;20041;-73
2022/09/13 16:44:19;;;;;;;;;;;24.00;99.90;;;;;;4979650;28;19918;-74
2022/09/13 16:46:45;;;;;;;;;;;23.90;99.90;;;;;;4997558;28;19912;-74
2022/09/13 16:49:20;;;;;;;;;;;23.90;99.90;;;;;;4997397;28;19941;-74
2022/09/13 16:51:49;;;;;;;;;;;23.80;99.90;;;;;;4999005;28;19956;-73
2022/09/13 16:54:14;;;;;;;;;;;23.80;99.90;;;;;;4992780;28;19906;-73
2022/09/13 16:56:59;;;;;;;;;;;;;;;;;;;;;
2022/09/13 17:02:11;;;;;;;;;;;23.70;99.90;;;;;;4988311;28;19914;-74
2022/09/13 17:04:44;;;;;;;;;;;23.60;99.90;;;;;;4998182;28;20364;-74
2022/09/13 17:07:11;;;;;;;;;;;23.60;99.90;;;;;;5000198;28;19995;-73
2022/09/13 17:09:39;;;;;;;;;;;23.50;99.90;;;;;;5005900;28;20378;-74
2022/09/13 17:12:09;;;;;;;;;;;23.60;99.90;;;;;;5004310;28;19945;-74
2022/09/13 17:14:34;;;;;;;;;;;23.60;99.90;;;;;;4985169;28;20395;-75
2022/09/13 17:17:00;;;;;;;;;;;23.60;99.90;;;;;;5001485;28;19913;-74
2022/09/13 17:19:32;;;;;;;;;;;23.50;99.90;;;;;;5000116;28;19982;-74
2022/09/13 17:21:58;;;;;;;;;;;23.40;99.90;;;;;;4997084;28;19973;-74
2022/09/13 17:24:25;;;;;;;;;;;23.40;99.90;;;;;;4999655;28;20327;-74
2022/09/13 17:26:51;;;;;;;;;;;23.40;99.90;;;;;;4995248;28;20020;-74
2022/09/13 17:29:18;;;;;;;;;;;23.20;99.90;;;;;;4995444;28;19929;-74
2022/09/13 17:31:43;;;;;;;;;;;23.20;99.90;;;;;;4997519;28;19910;-74
2022/09/13 17:34:10;;;;;;;;;;;23.20;99.90;;;;;;4982475;28;19996;-73
2022/09/13 17:36:37;;;;;;;;;;;23.10;99.90;;;;;;4996585;28;19913;-74
2022/09/13 17:39:03;;;;;;;;;;;23.10;99.90;;;;;;4978396;28;19949;-74
2022/09/13 17:41:29;;;;;;;;;;;23.10;99.90;;;;;;5000282;28;20093;-74
2022/09/13 17:43:54;;;;;;;;;;;23.10;99.90;;;;;;4996085;28;19914;-74
2022/09/13 17:46:21;;;;;;;;;;;23.00;99.90;;;;;;4995406;28;20271;-74
2022/09/13 17:48:48;;;;;;;;;;;23.00;99.90;;;;;;4995035;28;19910;-74
2022/09/13 17:51:15;;;;;;;;;;;23.00;99.90;;;;;;4995552;28;20411;-74
2022/09/13 17:53:45;;;;;;;;;;;22.90;99.90;;;;;;4996463;28;19913;-74
2022/09/13 17:56:11;;;;;;;;;;;22.90;99.90;;;;;;4977788;28;19905;-73
2022/09/13 17:58:37;;;;;;;;;;;22.90;99.90;;;;;;5003794;28;19920;-80
2022/09/13 18:01:09;;;;;;;;;;;22.90;99.90;;;;;;5004060;28;19976;-81
2022/09/13 18:03:35;;;;;;;;;;;23.10;99.90;;;;;;5006074;28;19916;-80
2022/09/13 18:06:12;;;;;;;;;;;23.10;99.90;;;;;;4998906;28;19969;-80
2022/09/13 18:08:45;;;;;;;;;;;23.10;99.90;;;;;;5010587;28;20306;-79
2022/09/13 18:11:14;;;;;;;;;;;23.10;99.90;;;;;;4991726;28;19913;-79
2022/09/13 18:13:41;;;;;;;;;;;23.10;99.90;;;;;;4997879;28;20026;-79
2022/09/13 18:16:09;;;;;;;;;;;23.00;99.90;;;;;;5001871;28;19941;-79
2022/09/13 18:18:35;;;;;;;;;;;23.00;99.90;;;;;;4998782;28;20295;-79
2022/09/13 18:21:01;;;;;;;;;;;22.90;99.90;;;;;;5004001;28;19917;-79
2022/09/13 18:23:36;;;;;;;;;;;22.90;99.90;;;;;;4996878;28;19910;-79
2022/09/13 18:26:03;;;;;;;;;;;22.80;99.90;;;;;;4996732;28;19910;-80
2022/09/13 18:28:29;;;;;;;;;;;22.80;99.90;;;;;;4998841;28;19906;-80
2022/09/13 18:30:56;;;;;;;;;;;22.90;99.90;;;;;;4981775;28;19910;-80
2022/09/13 18:33:22;;;;;;;;;;;22.90;99.90;;;;;;4983540;28;19914;-79
2022/09/13 18:35:56;;;;;;;;;;;22.90;99.90;;;;;;4997124;28;19910;-79
2022/09/13 18:38:21;;;;;;;;;;;22.80;99.90;;;;;;4987335;28;19914;-79
2022/09/13 18:40:56;;;;;;;;;;;22.70;99.90;;;;;;4980145;28;19916;-80
2022/09/13 18:43:21;;;;;;;;;;;22.70;99.90;;;;;;4990700;28;19914;-79
2022/09/13 18:45:56;;;;;;;;;;;22.60;99.90;;;;;;4997013;28;19952;-79
2022/09/13 18:48:27;;;;;;;;;;;22.60;99.90;;;;;;4982379;28;19914;-79
2022/09/13 18:50:55;;;;;;;;;;;22.60;99.90;;;;;;5004360;28;19916;-79
2022/09/13 18:53:21;;;;;;;;;;;22.50;99.90;;;;;;5001269;28;19909;-79
2022/09/13 18:56:02;;;;;;;;;;;22.40;99.90;;;;;;4984053;28;19957;-79
2022/09/13 18:58:29;;;;;;;;;;;22.40;99.90;;;;;;4999622;28;19906;-79
2022/09/13 19:01:02;;;;;;;;;;;22.50;99.90;;;;;;5003491;28;20397;-79
2022/09/13 19:03:53;;;;;;;;;;;22.40;99.90;;;;;;4993752;28;20362;-79
2022/09/13 19:06:26;;;;;;;;;;;22.30;99.90;;;;;;5003356;28;19913;-79
2022/09/13 19:08:53;;;;;;;;;;;22.30;99.90;;;;;;4997937;28;19906;-79
2022/09/13 19:11:20;;;;;;;;;;;22.30;99.90;;;;;;4996695;28;19910;-79
2022/09/13 19:13:46;;;;;;;;;;;22.30;99.90;;;;;;4998278;28;19957;-79
2022/09/13 19:16:13;;;;;;;;;;;22.30;99.90;;;;;;4997621;28;20268;-80
2022/09/13 19:18:42;;;;;;;;;;;22.30;99.90;;;;;;4996320;28;19964;-79
2022/09/13 19:21:22;;;;;;;;;;;22.30;99.90;;;;;;4994577;28;19914;-78
2022/09/13 19:23:55;;;;;;;;;;;22.20;99.90;;;;;;5003417;28;20030;-79
2022/09/13 19:26:22;;;;;;;;;;;22.20;99.90;;;;;;4997066;28;20376;-79
2022/09/13 19:28:51;;;;;;;;;;;22.10;99.90;;;;;;4991150;28;19920;-79
2022/09/13 19:31:25;;;;;;;;;;;22.10;99.90;;;;;;4993487;28;19917;-79
2022/09/13 19:33:52;;;;;;;;;;;22.10;99.90;;;;;;4995435;28;19909;-80
2022/09/13 19:36:22;;;;;;;;;;;22.10;99.90;;;;;;5003265;28;19933;-79
2022/09/13 19:38:48;;;;;;;;;;;22.10;99.90;;;;;;4980469;28;19914;-79
2022/09/13 19:41:17;;;;;;;;;;;22.00;99.90;;;;;;4997663;28;19920;-79
2022/09/13 19:46:39;;;;;;;;;;;22.10;99.90;;;;;;4996549;28;19963;-79
2022/09/13 19:49:05;;;;;;;;;;;22.10;99.90;;;;;;5006444;28;20413;-79
2022/09/13 19:51:32;;;;;;;;;;;22.10;99.90;;;;;;5004635;28;19910;-79
2022/09/13 19:53:58;;;;;;;;;;;22.10;99.90;;;;;;5006100;28;19925;-80
2022/09/13 19:56:26;;;;;;;;;;;22.10;99.90;;;;;;5006945;28;19920;-80
2022/09/13 19:58:54;;;;;;;;;;;22.10;99.90;;;;;;4983358;28;20312;-79
2022/09/13 20:01:22;;;;;;;;;;;22.00;99.90;;;;;;4994877;28;19937;-79
2022/09/13 20:03:54;;;;;;;;;;;22.10;99.90;;;;;;4998857;28;20001;-79
2022/09/13 20:06:22;;;;;;;;;;;22.10;99.90;;;;;;5000117;28;20339;-80
2022/09/13 20:08:52;;;;;;;;;;;22.00;99.90;;;;;;4980469;28;20401;-79
2022/09/13 20:11:24;;;;;;;;;;;22.00;99.90;;;;;;4988881;28;19953;-79
2022/09/13 20:13:51;;;;;;;;;;;22.00;99.90;;;;;;5000274;28;19912;-79
2022/09/13 20:16:21;;;;;;;;;;;21.90;99.90;;;;;;4982611;28;20356;-79
2022/09/13 20:18:47;;;;;;;;;;;21.90;99.90;;;;;;5002547;28;19989;-79
2022/09/13 20:21:20;;;;;;;;;;;21.80;99.90;;;;;;5001249;28;19918;-79
2022/09/13 20:23:46;;;;;;;;;;;21.70;99.90;;;;;;5002130;28;20310;-79
2022/09/13 20:26:18;;;;;;;;;;;21.70;99.90;;;;;;4989633;28;19909;-80
2022/09/13 20:28:52;;;;;;;;;;;21.70;99.90;;;;;;4989354;28;19918;-79
2022/09/13 20:31:18;;;;;;;;;;;21.60;99.90;;;;;;4973984;28;19914;-79
2022/09/13 20:33:44;;;;;;;;;;;21.60;99.90;;;;;;4981565;28;20371;-79
2022/09/13 20:36:11;;;;;;;;;;;21.60;99.90;;;;;;4984871;28;19954;-79
2022/09/13 20:38:37;;;;;;;;;;;21.40;99.90;;;;;;5002491;28;19905;-80
2022/09/13 20:41:13;;;;;;;;;;;21.30;99.90;;;;;;5002033;28;20025;-80
2022/09/13 20:43:41;;;;;;;;;;;21.20;99.90;;;;;;5003459;28;20327;-80
2022/09/13 20:46:11;;;;;;;;;;;21.20;99.90;;;;;;5002380;28;19906;-80
2022/09/13 20:48:38;;;;;;;;;;;21.20;99.90;;;;;;5000681;28;19906;-80
2022/09/13 20:51:07;;;;;;;;;;;21.20;99.90;;;;;;5001341;28;19910;-79
2022/09/13 20:53:34;;;;;;;;;;;21.30;99.90;;;;;;4984009;28;19906;-80
2022/09/13 20:56:07;;;;;;;;;;;21.40;99.90;;;;;;5000713;28;20291;-83
2022/09/13 20:58:42;;;;;;;;;;;21.40;99.90;;;;;;5003531;28;19945;-80
2022/09/13 21:01:18;;;;;;;;;;;21.40;99.90;;;;;;4985298;28;20072;-82